sensor_id;sensor_type;location;lat;lon;timestamp;pressure;altitude;pressure_sealevel;temperature;humidity
45129;BME280;35512;56.312;101.728;2023-05-09T00:00:08;96172.53;;;11.56;34.12
45129;BME280;35512;56.312;101.728;2023-05-09T00:02:42;96171.38;;;11.61;33.87
45129;BME280;35512;56.312;101.728;2023-05-09T00:05:15;96172.22;;;11.72;33.78
45129;BME280;35512;56.312;101.728;2023-05-09T00:07:44;96154.09;;;11.76;33.80
45129;BME280;35512;56.312;101.728;2023-05-09T00:10:14;96157.63;;;11.84;33.63
45129;BME280;35512;56.312;101.728;2023-05-09T00:12:42;96143.38;;;11.91;33.44
45129;BME280;35512;56.312;101.728;2023-05-09T00:15:11;96155.06;;;11.98;33.48
45129;BME280;35512;56.312;101.728;2023-05-09T00:17:41;96158.16;;;12.00;33.14
45129;BME280;35512;56.312;101.728;2023-05-09T00:20:10;96153.16;;;12.06;33.26
45129;BME280;35512;56.312;101.728;2023-05-09T00:22:40;96149.34;;;12.18;32.95
45129;BME280;35512;56.312;101.728;2023-05-09T00:25:10;96148.25;;;12.30;32.81
45129;BME280;35512;56.312;101.728;2023-05-09T00:27:39;96134.34;;;12.35;32.81
45129;BME280;35512;56.312;101.728;2023-05-09T00:30:08;96142.16;;;12.51;32.82
45129;BME280;35512;56.312;101.728;2023-05-09T00:32:37;96133.69;;;12.67;32.51
45129;BME280;35512;56.312;101.728;2023-05-09T00:35:08;96132.22;;;12.98;32.12
45129;BME280;35512;56.312;101.728;2023-05-09T00:37:38;96136.47;;;13.14;32.12
45129;BME280;35512;56.312;101.728;2023-05-09T00:40:08;96133.00;;;13.28;32.02
45129;BME280;35512;56.312;101.728;2023-05-09T00:42:38;96129.16;;;13.40;31.86
45129;BME280;35512;56.312;101.728;2023-05-09T00:45:08;96138.47;;;13.67;31.79
45129;BME280;35512;56.312;101.728;2023-05-09T00:47:38;96138.44;;;13.85;31.30
45129;BME280;35512;56.312;101.728;2023-05-09T00:50:08;96127.50;;;14.11;31.08
45129;BME280;35512;56.312;101.728;2023-05-09T00:52:37;96125.91;;;14.20;30.46
45129;BME280;35512;56.312;101.728;2023-05-09T00:55:07;96127.84;;;14.27;30.38
45129;BME280;35512;56.312;101.728;2023-05-09T00:57:36;96125.44;;;14.47;30.26
45129;BME280;35512;56.312;101.728;2023-05-09T01:00:06;96125.00;;;14.63;30.09
45129;BME280;35512;56.312;101.728;2023-05-09T01:02:52;96119.06;;;14.83;30.15
45129;BME280;35512;56.312;101.728;2023-05-09T01:05:29;96121.69;;;15.01;29.85
45129;BME280;35512;56.312;101.728;2023-05-09T01:11:08;96113.97;;;14.96;29.37
45129;BME280;35512;56.312;101.728;2023-05-09T01:13:56;96113.09;;;15.10;29.67
45129;BME280;35512;56.312;101.728;2023-05-09T01:16:44;96110.25;;;15.24;29.08
45129;BME280;35512;56.312;101.728;2023-05-09T01:22:19;96107.91;;;15.71;28.81
45129;BME280;35512;56.312;101.728;2023-05-09T01:25:19;96110.16;;;15.84;28.68
45129;BME280;35512;56.312;101.728;2023-05-09T01:28:06;96099.09;;;16.33;28.14
45129;BME280;35512;56.312;101.728;2023-05-09T01:30:43;96104.81;;;17.55;26.99
45129;BME280;35512;56.312;101.728;2023-05-09T01:33:17;96097.38;;;18.59;26.14
45129;BME280;35512;56.312;101.728;2023-05-09T01:35:51;96098.34;;;19.88;26.46
45129;BME280;35512;56.312;101.728;2023-05-09T01:38:22;96090.00;;;21.41;26.41
45129;BME280;35512;56.312;101.728;2023-05-09T01:40:53;96090.69;;;22.59;25.63
45129;BME280;35512;56.312;101.728;2023-05-09T01:43:27;96090.88;;;23.56;24.80
45129;BME280;35512;56.312;101.728;2023-05-09T01:45:58;96082.25;;;23.94;23.56
45129;BME280;35512;56.312;101.728;2023-05-09T01:48:29;96078.97;;;24.42;23.24
45129;BME280;35512;56.312;101.728;2023-05-09T01:51:00;96075.13;;;24.40;21.70
45129;BME280;35512;56.312;101.728;2023-05-09T01:53:30;96066.13;;;24.02;20.79
45129;BME280;35512;56.312;101.728;2023-05-09T01:56:03;96059.41;;;24.03;20.95
45129;BME280;35512;56.312;101.728;2023-05-09T01:58:33;96070.06;;;24.47;21.03
45129;BME280;35512;56.312;101.728;2023-05-09T02:01:05;96063.16;;;25.04;20.78
45129;BME280;35512;56.312;101.728;2023-05-09T02:03:36;96059.88;;;25.48;20.62
45129;BME280;35512;56.312;101.728;2023-05-09T02:06:06;96052.16;;;25.77;20.14
45129;BME280;35512;56.312;101.728;2023-05-09T02:08:36;96059.59;;;26.10;19.82
45129;BME280;35512;56.312;101.728;2023-05-09T02:11:06;96048.91;;;26.32;19.68
45129;BME280;35512;56.312;101.728;2023-05-09T02:13:35;96053.59;;;26.41;19.53
45129;BME280;35512;56.312;101.728;2023-05-09T02:16:06;96045.78;;;26.40;19.03
45129;BME280;35512;56.312;101.728;2023-05-09T02:18:36;96040.59;;;26.62;19.20
45129;BME280;35512;56.312;101.728;2023-05-09T02:21:06;96040.56;;;26.92;18.83
45129;BME280;35512;56.312;101.728;2023-05-09T02:23:35;96043.06;;;27.26;18.63
45129;BME280;35512;56.312;101.728;2023-05-09T02:26:05;96045.19;;;27.52;17.84
45129;BME280;35512;56.312;101.728;2023-05-09T02:28:35;96039.22;;;27.79;18.05
45129;BME280;35512;56.312;101.728;2023-05-09T02:31:05;96039.75;;;28.57;18.37
45129;BME280;35512;56.312;101.728;2023-05-09T02:33:37;96044.66;;;29.05;17.88
45129;BME280;35512;56.312;101.728;2023-05-09T02:36:09;96039.91;;;29.55;17.50
45129;BME280;35512;56.312;101.728;2023-05-09T02:38:40;96036.19;;;29.80;17.62
45129;BME280;35512;56.312;101.728;2023-05-09T02:41:14;96034.09;;;29.64;17.00
45129;BME280;35512;56.312;101.728;2023-05-09T02:43:43;96022.75;;;29.62;16.63
45129;BME280;35512;56.312;101.728;2023-05-09T02:46:14;96022.09;;;29.29;16.72
45129;BME280;35512;56.312;101.728;2023-05-09T02:48:44;96024.28;;;29.74;16.39
45129;BME280;35512;56.312;101.728;2023-05-09T02:51:17;96020.97;;;29.64;16.19
45129;BME280;35512;56.312;101.728;2023-05-09T02:53:46;96010.72;;;29.27;15.72
45129;BME280;35512;56.312;101.728;2023-05-09T02:56:16;96016.13;;;29.10;16.57
45129;BME280;35512;56.312;101.728;2023-05-09T02:58:44;96012.88;;;29.17;16.33
45129;BME280;35512;56.312;101.728;2023-05-09T03:01:19;96005.41;;;29.35;16.11
45129;BME280;35512;56.312;101.728;2023-05-09T03:03:51;96001.59;;;29.27;16.03
45129;BME280;35512;56.312;101.728;2023-05-09T03:06:21;96003.41;;;29.36;15.81
45129;BME280;35512;56.312;101.728;2023-05-09T03:08:51;95994.69;;;29.71;15.86
45129;BME280;35512;56.312;101.728;2023-05-09T03:11:22;95987.09;;;29.72;15.93
45129;BME280;35512;56.312;101.728;2023-05-09T03:13:51;95995.81;;;30.19;15.65
45129;BME280;35512;56.312;101.728;2023-05-09T03:16:20;95987.47;;;30.36;15.56
45129;BME280;35512;56.312;101.728;2023-05-09T03:18:50;95989.25;;;30.39;15.33
45129;BME280;35512;56.312;101.728;2023-05-09T03:21:19;95989.38;;;31.43;15.64
45129;BME280;35512;56.312;101.728;2023-05-09T03:23:48;95982.28;;;32.31;15.57
45129;BME280;35512;56.312;101.728;2023-05-09T03:26:17;95976.16;;;32.39;14.82
45129;BME280;35512;56.312;101.728;2023-05-09T03:28:48;95978.81;;;32.86;14.69
45129;BME280;35512;56.312;101.728;2023-05-09T03:31:17;95991.84;;;33.52;14.61
45129;BME280;35512;56.312;101.728;2023-05-09T03:33:46;95987.53;;;34.08;14.69
45129;BME280;35512;56.312;101.728;2023-05-09T03:36:16;95979.41;;;34.56;13.65
45129;BME280;35512;56.312;101.728;2023-05-09T03:38:45;95969.06;;;33.61;12.79
45129;BME280;35512;56.312;101.728;2023-05-09T03:41:15;95982.63;;;32.83;13.29
45129;BME280;35512;56.312;101.728;2023-05-09T03:43:47;95977.25;;;32.91;13.49
45129;BME280;35512;56.312;101.728;2023-05-09T03:46:16;95975.47;;;32.57;13.45
45129;BME280;35512;56.312;101.728;2023-05-09T03:48:48;95970.06;;;32.71;13.73
45129;BME280;35512;56.312;101.728;2023-05-09T03:51:17;95972.03;;;33.00;13.86
45129;BME280;35512;56.312;101.728;2023-05-09T03:53:46;95973.03;;;33.28;13.42
45129;BME280;35512;56.312;101.728;2023-05-09T03:56:16;95975.78;;;33.52;13.32
45129;BME280;35512;56.312;101.728;2023-05-09T03:58:50;95970.66;;;33.76;13.89
45129;BME280;35512;56.312;101.728;2023-05-09T04:01:19;95961.47;;;34.32;13.60
45129;BME280;35512;56.312;101.728;2023-05-09T04:03:48;95967.28;;;33.83;12.98
45129;BME280;35512;56.312;101.728;2023-05-09T04:06:22;95962.41;;;33.20;12.76
45129;BME280;35512;56.312;101.728;2023-05-09T04:08:51;95958.69;;;32.63;12.97
45129;BME280;35512;56.312;101.728;2023-05-09T04:11:20;95951.81;;;31.97;13.23
45129;BME280;35512;56.312;101.728;2023-05-09T04:13:49;95950.97;;;31.66;13.42
45129;BME280;35512;56.312;101.728;2023-05-09T04:16:29;95941.34;;;31.67;13.28
45129;BME280;35512;56.312;101.728;2023-05-09T04:18:58;95926.69;;;31.97;13.81
45129;BME280;35512;56.312;101.728;2023-05-09T04:21:28;95931.41;;;32.44;13.47
45129;BME280;35512;56.312;101.728;2023-05-09T04:23:59;95925.66;;;33.35;13.02
45129;BME280;35512;56.312;101.728;2023-05-09T04:26:35;95930.03;;;33.69;12.82
45129;BME280;35512;56.312;101.728;2023-05-09T04:29:10;95919.13;;;34.03;12.79
45129;BME280;35512;56.312;101.728;2023-05-09T04:31:39;95907.22;;;34.89;13.25
45129;BME280;35512;56.312;101.728;2023-05-09T04:34:11;95914.53;;;35.80;12.23
45129;BME280;35512;56.312;101.728;2023-05-09T04:36:41;95915.81;;;35.93;12.03
45129;BME280;35512;56.312;101.728;2023-05-09T04:39:10;95917.25;;;36.07;12.03
45129;BME280;35512;56.312;101.728;2023-05-09T04:41:49;95903.22;;;36.07;11.54
45129;BME280;35512;56.312;101.728;2023-05-09T04:44:18;95910.06;;;35.64;11.99
45129;BME280;35512;56.312;101.728;2023-05-09T04:46:50;95900.41;;;35.25;12.13
45129;BME280;35512;56.312;101.728;2023-05-09T04:49:19;95888.47;;;34.97;11.93
45129;BME280;35512;56.312;101.728;2023-05-09T04:51:48;95880.69;;;34.63;11.89
45129;BME280;35512;56.312;101.728;2023-05-09T04:54:17;95886.94;;;34.69;12.11
45129;BME280;35512;56.312;101.728;2023-05-09T04:56:50;95880.25;;;35.13;12.02
45129;BME280;35512;56.312;101.728;2023-05-09T04:59:23;95882.06;;;35.71;11.83
45129;BME280;35512;56.312;101.728;2023-05-09T05:01:55;95873.66;;;35.93;12.14
45129;BME280;35512;56.312;101.728;2023-05-09T05:04:26;95867.88;;;36.62;11.41
45129;BME280;35512;56.312;101.728;2023-05-09T05:06:55;95869.38;;;36.92;11.77
45129;BME280;35512;56.312;101.728;2023-05-09T05:09:25;95865.53;;;37.54;11.36
45129;BME280;35512;56.312;101.728;2023-05-09T05:11:55;95854.66;;;37.66;11.04
45129;BME280;35512;56.312;101.728;2023-05-09T05:14:30;95853.91;;;37.66;10.72
45129;BME280;35512;56.312;101.728;2023-05-09T05:16:59;95846.69;;;37.34;10.96
45129;BME280;35512;56.312;101.728;2023-05-09T05:19:32;95849.56;;;37.05;10.90
45129;BME280;35512;56.312;101.728;2023-05-09T05:22:02;95841.59;;;36.88;11.29
45129;BME280;35512;56.312;101.728;2023-05-09T05:24:32;95827.63;;;37.11;11.26
45129;BME280;35512;56.312;101.728;2023-05-09T05:27:02;95828.09;;;36.86;10.74
45129;BME280;35512;56.312;101.728;2023-05-09T05:29:32;95819.00;;;36.15;11.30
45129;BME280;35512;56.312;101.728;2023-05-09T05:32:00;95820.66;;;36.39;11.19
45129;BME280;35512;56.312;101.728;2023-05-09T05:34:30;95820.69;;;36.76;11.23
45129;BME280;35512;56.312;101.728;2023-05-09T05:36:59;95815.81;;;37.13;11.10
45129;BME280;35512;56.312;101.728;2023-05-09T05:39:29;95812.84;;;37.18;10.86
45129;BME280;35512;56.312;101.728;2023-05-09T05:41:58;95794.41;;;36.65;10.64
45129;BME280;35512;56.312;101.728;2023-05-09T05:44:28;95805.00;;;36.80;10.93
45129;BME280;35512;56.312;101.728;2023-05-09T05:46:57;95797.16;;;37.31;10.64
45129;BME280;35512;56.312;101.728;2023-05-09T05:49:27;95795.53;;;37.66;10.75
45129;BME280;35512;56.312;101.728;2023-05-09T05:51:57;95791.31;;;38.68;10.93
45129;BME280;35512;56.312;101.728;2023-05-09T05:54:27;95783.69;;;39.42;10.34
45129;BME280;35512;56.312;101.728;2023-05-09T05:56:57;95772.69;;;39.54;9.90
45129;BME280;35512;56.312;101.728;2023-05-09T05:59:27;95775.56;;;38.57;10.13
45129;BME280;35512;56.312;101.728;2023-05-09T06:01:57;95767.44;;;38.69;10.05
45129;BME280;35512;56.312;101.728;2023-05-09T06:04:31;95771.28;;;38.17;9.78
45129;BME280;35512;56.312;101.728;2023-05-09T06:07:00;95766.81;;;36.93;10.38
45129;BME280;35512;56.312;101.728;2023-05-09T06:09:31;95762.13;;;37.03;10.67
45129;BME280;35512;56.312;101.728;2023-05-09T06:12:00;95757.59;;;38.29;10.72
45129;BME280;35512;56.312;101.728;2023-05-09T06:14:31;95753.88;;;39.24;10.49
45129;BME280;35512;56.312;101.728;2023-05-09T06:17:00;95753.84;;;39.31;9.58
45129;BME280;35512;56.312;101.728;2023-05-09T06:19:30;95744.75;;;38.44;9.99
45129;BME280;35512;56.312;101.728;2023-05-09T06:22:00;95742.56;;;38.03;10.02
45129;BME280;35512;56.312;101.728;2023-05-09T06:24:29;95728.47;;;37.42;9.93
45129;BME280;35512;56.312;101.728;2023-05-09T06:27:03;95745.66;;;37.15;10.19
45129;BME280;35512;56.312;101.728;2023-05-09T06:29:33;95731.38;;;37.13;10.76
45129;BME280;35512;56.312;101.728;2023-05-09T06:32:04;95724.16;;;37.71;10.63
45129;BME280;35512;56.312;101.728;2023-05-09T06:34:33;95724.75;;;37.78;10.17
45129;BME280;35512;56.312;101.728;2023-05-09T06:37:03;95714.41;;;37.57;10.02
45129;BME280;35512;56.312;101.728;2023-05-09T06:39:34;95722.41;;;37.14;10.32
45129;BME280;35512;56.312;101.728;2023-05-09T06:42:03;95719.28;;;37.33;10.54
45129;BME280;35512;56.312;101.728;2023-05-09T06:44:37;95710.63;;;37.39;10.15
45129;BME280;35512;56.312;101.728;2023-05-09T06:47:06;95711.25;;;36.85;10.12
45129;BME280;35512;56.312;101.728;2023-05-09T06:49:37;95703.03;;;36.95;10.75
45129;BME280;35512;56.312;101.728;2023-05-09T06:52:06;95699.38;;;37.31;10.46
45129;BME280;35512;56.312;101.728;2023-05-09T06:54:35;95691.69;;;37.78;10.30
45129;BME280;35512;56.312;101.728;2023-05-09T06:57:05;95690.84;;;38.16;10.03
45129;BME280;35512;56.312;101.728;2023-05-09T06:59:34;95689.22;;;38.05;9.91
45129;BME280;35512;56.312;101.728;2023-05-09T07:02:04;95689.44;;;37.84;10.16
45129;BME280;35512;56.312;101.728;2023-05-09T07:04:34;95687.38;;;37.54;10.13
45129;BME280;35512;56.312;101.728;2023-05-09T07:07:03;95676.47;;;37.66;10.35
45129;BME280;35512;56.312;101.728;2023-05-09T07:09:33;95674.78;;;37.47;9.94
45129;BME280;35512;56.312;101.728;2023-05-09T07:12:03;95683.38;;;37.11;10.35
45129;BME280;35512;56.312;101.728;2023-05-09T07:14:32;95677.75;;;37.11;10.38
45129;BME280;35512;56.312;101.728;2023-05-09T07:17:01;95667.81;;;36.58;10.60
45129;BME280;35512;56.312;101.728;2023-05-09T07:19:50;95666.94;;;36.78;10.28
45129;BME280;35512;56.312;101.728;2023-05-09T07:22:22;95666.28;;;37.16;10.18
45129;BME280;35512;56.312;101.728;2023-05-09T07:24:51;95658.59;;;37.01;10.46
45129;BME280;35512;56.312;101.728;2023-05-09T07:27:21;95656.91;;;36.98;10.58
45129;BME280;35512;56.312;101.728;2023-05-09T07:29:51;95649.19;;;36.83;10.41
45129;BME280;35512;56.312;101.728;2023-05-09T07:32:20;95656.53;;;36.42;10.31
45129;BME280;35512;56.312;101.728;2023-05-09T07:34:49;95647.78;;;36.17;10.31
45129;BME280;35512;56.312;101.728;2023-05-09T07:37:18;95635.06;;;36.24;10.74
45129;BME280;35512;56.312;101.728;2023-05-09T07:39:48;95636.41;;;36.30;10.65
45129;BME280;35512;56.312;101.728;2023-05-09T07:42:18;95631.31;;;36.65;10.17
45129;BME280;35512;56.312;101.728;2023-05-09T07:44:47;95628.28;;;36.63;10.35
45129;BME280;35512;56.312;101.728;2023-05-09T07:47:19;95631.47;;;36.60;10.47
45129;BME280;35512;56.312;101.728;2023-05-09T07:49:48;95622.78;;;36.34;10.43
45129;BME280;35512;56.312;101.728;2023-05-09T07:52:17;95612.63;;;35.66;10.41
45129;BME280;35512;56.312;101.728;2023-05-09T07:54:46;95620.44;;;34.54;10.87
45129;BME280;35512;56.312;101.728;2023-05-09T07:57:16;95599.88;;;33.31;11.05
45129;BME280;35512;56.312;101.728;2023-05-09T07:59:45;95600.16;;;31.86;11.79
45129;BME280;35512;56.312;101.728;2023-05-09T08:02:15;95601.13;;;30.31;12.81
45129;BME280;35512;56.312;101.728;2023-05-09T08:04:45;95599.72;;;29.03;13.64
45129;BME280;35512;56.312;101.728;2023-05-09T08:07:16;95602.84;;;28.16;14.27
45129;BME280;35512;56.312;101.728;2023-05-09T08:09:45;95595.72;;;27.49;14.82
45129;BME280;35512;56.312;101.728;2023-05-09T08:12:15;95601.53;;;27.14;15.08
45129;BME280;35512;56.312;101.728;2023-05-09T08:14:44;95589.88;;;26.72;15.64
45129;BME280;35512;56.312;101.728;2023-05-09T08:17:17;95590.25;;;26.33;15.54
45129;BME280;35512;56.312;101.728;2023-05-09T08:19:46;95585.44;;;26.07;15.95
45129;BME280;35512;56.312;101.728;2023-05-09T08:22:16;95583.09;;;26.00;15.88
45129;BME280;35512;56.312;101.728;2023-05-09T08:24:46;95575.81;;;25.82;16.07
45129;BME280;35512;56.312;101.728;2023-05-09T08:27:15;95573.75;;;25.56;16.14
45129;BME280;35512;56.312;101.728;2023-05-09T08:29:45;95568.56;;;25.43;16.33
45129;BME280;35512;56.312;101.728;2023-05-09T08:32:14;95577.91;;;25.31;16.66
45129;BME280;35512;56.312;101.728;2023-05-09T08:34:45;95567.94;;;25.19;16.56
45129;BME280;35512;56.312;101.728;2023-05-09T08:37:14;95575.31;;;25.07;16.87
45129;BME280;35512;56.312;101.728;2023-05-09T08:39:43;95564.59;;;24.94;16.95
45129;BME280;35512;56.312;101.728;2023-05-09T08:42:14;95567.16;;;24.83;17.08
45129;BME280;35512;56.312;101.728;2023-05-09T08:44:47;95558.97;;;24.88;16.98
45129;BME280;35512;56.312;101.728;2023-05-09T08:47:18;95553.13;;;25.01;16.82
45129;BME280;35512;56.312;101.728;2023-05-09T08:49:49;95559.44;;;24.87;16.90
45129;BME280;35512;56.312;101.728;2023-05-09T08:52:19;95554.88;;;24.69;17.23
45129;BME280;35512;56.312;101.728;2023-05-09T08:54:48;95553.16;;;24.56;17.46
45129;BME280;35512;56.312;101.728;2023-05-09T08:57:18;95553.63;;;24.55;17.34
45129;BME280;35512;56.312;101.728;2023-05-09T08:59:48;95552.69;;;24.58;17.47
45129;BME280;35512;56.312;101.728;2023-05-09T09:02:20;95548.78;;;24.50;17.52
45129;BME280;35512;56.312;101.728;2023-05-09T09:04:50;95547.94;;;24.43;17.55
45129;BME280;35512;56.312;101.728;2023-05-09T09:07:19;95539.53;;;24.38;17.50
45129;BME280;35512;56.312;101.728;2023-05-09T09:09:49;95543.81;;;24.39;17.48
45129;BME280;35512;56.312;101.728;2023-05-09T09:12:21;95537.94;;;24.31;17.58
45129;BME280;35512;56.312;101.728;2023-05-09T09:14:53;95531.75;;;24.21;17.63
45129;BME280;35512;56.312;101.728;2023-05-09T09:17:25;95534.88;;;24.14;17.71
45129;BME280;35512;56.312;101.728;2023-05-09T09:19:58;95537.44;;;24.03;17.80
45129;BME280;35512;56.312;101.728;2023-05-09T09:22:34;95530.13;;;24.00;17.99
45129;BME280;35512;56.312;101.728;2023-05-09T09:25:04;95521.56;;;23.98;17.94
45129;BME280;35512;56.312;101.728;2023-05-09T09:27:33;95532.28;;;23.95;17.85
45129;BME280;35512;56.312;101.728;2023-05-09T09:30:10;95528.19;;;23.91;17.93
45129;BME280;35512;56.312;101.728;2023-05-09T09:32:39;95527.28;;;23.70;17.95
45129;BME280;35512;56.312;101.728;2023-05-09T09:35:10;95526.75;;;23.56;18.04
45129;BME280;35512;56.312;101.728;2023-05-09T09:37:40;95523.69;;;23.54;18.16
45129;BME280;35512;56.312;101.728;2023-05-09T09:40:11;95524.94;;;23.53;18.15
45129;BME280;35512;56.312;101.728;2023-05-09T09:42:50;95516.91;;;23.40;18.19
45129;BME280;35512;56.312;101.728;2023-05-09T09:45:19;95520.31;;;23.35;18.31
45129;BME280;35512;56.312;101.728;2023-05-09T09:47:48;95519.09;;;23.36;18.28
45129;BME280;35512;56.312;101.728;2023-05-09T09:50:19;95508.53;;;23.35;18.28
45129;BME280;35512;56.312;101.728;2023-05-09T09:52:54;95511.72;;;23.42;18.18
45129;BME280;35512;56.312;101.728;2023-05-09T09:55:24;95506.78;;;23.46;18.28
45129;BME280;35512;56.312;101.728;2023-05-09T09:57:53;95509.28;;;23.59;18.15
45129;BME280;35512;56.312;101.728;2023-05-09T10:00:25;95506.41;;;23.54;18.10
45129;BME280;35512;56.312;101.728;2023-05-09T10:03:00;95511.50;;;23.46;18.06
45129;BME280;35512;56.312;101.728;2023-05-09T10:05:30;95500.34;;;23.25;18.03
45129;BME280;35512;56.312;101.728;2023-05-09T10:08:03;95494.19;;;22.97;17.98
45129;BME280;35512;56.312;101.728;2023-05-09T10:10:34;95489.31;;;22.68;18.37
45129;BME280;35512;56.312;101.728;2023-05-09T10:13:09;95484.19;;;22.51;18.56
45129;BME280;35512;56.312;101.728;2023-05-09T10:15:40;95495.00;;;22.55;18.51
45129;BME280;35512;56.312;101.728;2023-05-09T10:18:24;95494.88;;;22.49;18.63
45129;BME280;35512;56.312;101.728;2023-05-09T10:20:55;95497.00;;;22.54;18.46
45129;BME280;35512;56.312;101.728;2023-05-09T10:23:29;95485.53;;;22.56;18.35
45129;BME280;35512;56.312;101.728;2023-05-09T10:26:16;95488.16;;;22.50;18.58
45129;BME280;35512;56.312;101.728;2023-05-09T10:28:47;95488.78;;;22.36;18.38
45129;BME280;35512;56.312;101.728;2023-05-09T10:31:24;95485.47;;;22.22;18.72
45129;BME280;35512;56.312;101.728;2023-05-09T10:33:54;95483.19;;;22.11;18.86
45129;BME280;35512;56.312;101.728;2023-05-09T10:36:23;95487.03;;;21.86;19.09
45129;BME280;35512;56.312;101.728;2023-05-09T10:38:53;95480.50;;;21.56;19.36
45129;BME280;35512;56.312;101.728;2023-05-09T10:41:23;95477.25;;;21.39;19.32
45129;BME280;35512;56.312;101.728;2023-05-09T10:43:57;95469.78;;;21.30;19.30
45129;BME280;35512;56.312;101.728;2023-05-09T10:46:28;95476.34;;;21.33;19.26
45129;BME280;35512;56.312;101.728;2023-05-09T10:48:57;95474.66;;;21.26;19.43
45129;BME280;35512;56.312;101.728;2023-05-09T10:51:26;95470.09;;;21.23;19.41
45129;BME280;35512;56.312;101.728;2023-05-09T10:53:56;95469.00;;;21.30;19.37
45129;BME280;35512;56.312;101.728;2023-05-09T10:56:32;95470.38;;;21.25;19.33
45129;BME280;35512;56.312;101.728;2023-05-09T10:59:03;95471.75;;;21.20;19.38
45129;BME280;35512;56.312;101.728;2023-05-09T11:01:34;95463.06;;;21.22;19.40
45129;BME280;35512;56.312;101.728;2023-05-09T11:04:10;95469.47;;;21.28;19.40
45129;BME280;35512;56.312;101.728;2023-05-09T11:09:33;95466.72;;;21.37;19.32
45129;BME280;35512;56.312;101.728;2023-05-09T11:12:10;95456.66;;;21.34;19.35
45129;BME280;35512;56.312;101.728;2023-05-09T11:14:45;95457.56;;;21.40;19.12
45129;BME280;35512;56.312;101.728;2023-05-09T11:22:20;95452.38;;;21.33;19.28
45129;BME280;35512;56.312;101.728;2023-05-09T11:24:51;95460.00;;;21.29;19.02
45129;BME280;35512;56.312;101.728;2023-05-09T11:27:24;95463.22;;;21.27;19.26
45129;BME280;35512;56.312;101.728;2023-05-09T11:29:56;95463.97;;;21.28;19.28
45129;BME280;35512;56.312;101.728;2023-05-09T11:32:33;95458.31;;;21.22;19.15
45129;BME280;35512;56.312;101.728;2023-05-09T11:35:13;95450.69;;;21.08;19.27
45129;BME280;35512;56.312;101.728;2023-05-09T11:37:59;95466.22;;;21.02;19.31
45129;BME280;35512;56.312;101.728;2023-05-09T11:40:29;95459.97;;;20.92;19.32
45129;BME280;35512;56.312;101.728;2023-05-09T11:42:59;95456.91;;;20.90;19.55
45129;BME280;35512;56.312;101.728;2023-05-09T11:45:30;95461.31;;;20.78;19.49
45129;BME280;35512;56.312;101.728;2023-05-09T11:48:00;95458.19;;;20.67;19.52
45129;BME280;35512;56.312;101.728;2023-05-09T11:50:30;95454.53;;;20.60;19.70
45129;BME280;35512;56.312;101.728;2023-05-09T11:53:00;95456.31;;;20.54;19.88
45129;BME280;35512;56.312;101.728;2023-05-09T11:55:28;95450.00;;;20.35;19.97
45129;BME280;35512;56.312;101.728;2023-05-09T11:57:59;95462.38;;;20.40;20.09
45129;BME280;35512;56.312;101.728;2023-05-09T12:00:29;95453.97;;;20.34;20.20
45129;BME280;35512;56.312;101.728;2023-05-09T12:02:59;95454.84;;;20.31;20.16
45129;BME280;35512;56.312;101.728;2023-05-09T12:05:29;95456.97;;;20.27;20.09
45129;BME280;35512;56.312;101.728;2023-05-09T12:08:01;95452.84;;;20.22;20.32
45129;BME280;35512;56.312;101.728;2023-05-09T12:10:36;95455.88;;;20.15;20.18
45129;BME280;35512;56.312;101.728;2023-05-09T12:13:05;95455.34;;;20.07;20.34
45129;BME280;35512;56.312;101.728;2023-05-09T12:15:36;95448.44;;;19.93;20.34
45129;BME280;35512;56.312;101.728;2023-05-09T12:18:06;95453.59;;;19.91;20.53
45129;BME280;35512;56.312;101.728;2023-05-09T12:20:47;95458.56;;;19.84;20.66
45129;BME280;35512;56.312;101.728;2023-05-09T12:23:18;95455.59;;;19.78;20.67
45129;BME280;35512;56.312;101.728;2023-05-09T12:25:56;95454.22;;;19.73;20.75
45129;BME280;35512;56.312;101.728;2023-05-09T12:28:25;95457.50;;;19.68;20.75
45129;BME280;35512;56.312;101.728;2023-05-09T12:30:55;95452.13;;;19.55;20.95
45129;BME280;35512;56.312;101.728;2023-05-09T12:33:24;95453.31;;;19.54;20.91
45129;BME280;35512;56.312;101.728;2023-05-09T12:36:06;95466.38;;;19.50;20.84
45129;BME280;35512;56.312;101.728;2023-05-09T12:38:36;95465.84;;;19.42;20.96
45129;BME280;35512;56.312;101.728;2023-05-09T12:41:07;95462.72;;;19.31;20.93
45129;BME280;35512;56.312;101.728;2023-05-09T12:43:56;95457.69;;;19.30;21.10
45129;BME280;35512;56.312;101.728;2023-05-09T12:46:25;95451.88;;;19.28;21.03
45129;BME280;35512;56.312;101.728;2023-05-09T12:48:54;95456.91;;;19.29;21.17
45129;BME280;35512;56.312;101.728;2023-05-09T12:51:23;95460.97;;;19.24;21.08
45129;BME280;35512;56.312;101.728;2023-05-09T12:53:52;95460.22;;;19.24;21.08
45129;BME280;35512;56.312;101.728;2023-05-09T12:56:21;95464.59;;;19.21;21.36
45129;BME280;35512;56.312;101.728;2023-05-09T12:58:52;95470.75;;;19.13;21.19
45129;BME280;35512;56.312;101.728;2023-05-09T13:01:27;95463.22;;;19.04;21.37
45129;BME280;35512;56.312;101.728;2023-05-09T13:04:02;95446.94;;;18.87;21.51
45129;BME280;35512;56.312;101.728;2023-05-09T13:06:33;95470.75;;;18.87;21.46
45129;BME280;35512;56.312;101.728;2023-05-09T13:09:03;95478.47;;;18.79;21.70
45129;BME280;35512;56.312;101.728;2023-05-09T13:11:36;95475.16;;;18.71;21.69
45129;BME280;35512;56.312;101.728;2023-05-09T13:14:06;95465.88;;;18.69;21.71